Time;durP1;ratioP1;P1;durP2;ratioP2;P2;SDS_P1;SDS_P2;PMS_P1;PMS_P2;Temp;Humidity;BMP_temperature;BMP_pressure;BME280_temperature;BME280_humidity;BME280_pressure;Samples;Min_cycle;Max_cycle;Signal;HPM_P1;HPM_P2
2021/01/09 00:00:26;;;;;;;12.85;10.28;;;;;;;0.97;85.45;99898.65;1766369;81;20941;-70
2021/01/09 00:02:55;;;;;;;12.40;10.55;;;;;;;0.96;85.49;99898.24;1766193;80;21378;-70
2021/01/09 00:05:23;;;;;;;14.45;11.38;;;;;;;0.97;85.59;99906.34;1766178;81;21502;-70
2021/01/09 00:07:52;;;;;;;14.03;10.75;;;;;;;0.97;85.62;99899.50;1766302;81;21020;-70
2021/01/09 00:10:20;;;;;;;12.20;10.93;;;;;;;0.99;85.59;99902.03;1766214;81;21032;-70
2021/01/09 00:12:48;;;;;;;13.30;10.95;;;;;;;0.98;85.53;99894.78;1766313;81;20968;-70
2021/01/09 00:15:18;;;;;;;12.40;10.20;;;;;;;0.99;85.52;99905.44;1766191;81;21427;-70
2021/01/09 00:17:46;;;;;;;12.18;10.93;;;;;;;0.98;85.60;99901.19;1766263;81;21609;-70
2021/01/09 00:20:15;;;;;;;12.37;10.60;;;;;;;0.99;85.59;99897.75;1766224;81;21610;-71
2021/01/09 00:22:44;;;;;;;12.45;10.53;;;;;;;1.00;85.61;99889.63;1766182;81;21005;-71
2021/01/09 00:25:16;;;;;;;11.90;10.35;;;;;;;1.02;85.59;99896.00;1766218;81;21008;-70
2021/01/09 00:27:45;;;;;;;11.93;10.55;;;;;;;0.99;85.61;99895.19;1766339;81;22167;-70
2021/01/09 00:30:15;;;;;;;12.53;10.43;;;;;;;1.00;85.66;99898.59;1766140;81;20957;-68
2021/01/09 00:32:45;;;;;;;12.73;10.15;;;;;;;0.99;85.68;99900.31;1766272;81;21455;-68
2021/01/09 00:35:14;;;;;;;11.80;10.05;;;;;;;1.00;85.66;99896.03;1736940;81;21099;-71
2021/01/09 00:37:42;;;;;;;13.90;10.80;;;;;;;0.98;85.74;99896.06;1766304;80;21447;-70
2021/01/09 00:40:12;;;;;;;12.73;10.70;;;;;;;0.98;85.76;99892.21;1766308;81;22226;-71
2021/01/09 00:42:41;;;;;;;11.80;10.10;;;;;;;0.99;85.73;99887.93;1766266;81;21000;-68
2021/01/09 00:45:12;;;;;;;12.85;11.05;;;;;;;0.97;85.75;99885.83;1766184;81;20965;-68
2021/01/09 00:47:41;;;;;;;11.93;10.30;;;;;;;0.95;85.87;99878.61;1766178;81;21020;-70
2021/01/09 00:50:10;;;;;;;12.90;10.82;;;;;;;0.94;85.96;99875.64;1766246;81;21016;-71
2021/01/09 00:52:40;;;;;;;11.60;10.15;;;;;;;0.93;86.09;99877.36;1766204;81;21199;-71
2021/01/09 00:55:09;;;;;;;12.40;10.68;;;;;;;0.93;86.12;99873.51;1762614;81;20973;-71
2021/01/09 00:57:37;;;;;;;12.33;10.05;;;;;;;0.93;86.15;99870.95;1757799;81;21043;-69
2021/01/09 01:00:08;;;;;;;13.00;10.58;;;;;;;0.92;86.20;99876.95;1757838;81;21731;-68
2021/01/09 01:02:37;;;;;;;13.22;11.00;;;;;;;0.91;86.30;99867.56;1757818;81;21063;-69
2021/01/09 01:05:07;;;;;;;12.90;10.95;;;;;;;0.89;86.34;99868.47;1757837;80;21225;-69
2021/01/09 01:07:52;;;;;;;14.15;11.93;;;;;;;0.89;86.39;99862.91;1757738;81;21001;-69
2021/01/09 01:10:21;;;;;;;12.40;10.80;;;;;;;0.87;86.47;99859.97;1757856;81;20965;-69
2021/01/09 01:12:51;;;;;;;14.13;11.25;;;;;;;0.88;86.51;99865.50;1757782;81;21005;-69
2021/01/09 01:15:19;;;;;;;14.33;11.43;;;;;;;0.86;86.62;99862.96;1757870;81;21017;-69
2021/01/09 01:17:48;;;;;;;13.88;11.53;;;;;;;0.86;86.68;99866.81;1757819;81;21270;-69
2021/01/09 01:20:16;;;;;;;15.18;11.88;;;;;;;0.87;86.75;99866.38;1757763;81;20953;-69
2021/01/09 01:22:45;;;;;;;13.30;10.32;;;;;;;0.88;86.71;99871.91;1757821;81;21083;-69
2021/01/09 01:25:14;;;;;;;17.85;10.90;;;;;;;0.87;86.73;99866.38;1757713;81;20973;-70
2021/01/09 01:27:42;;;;;;;16.17;12.25;;;;;;;0.85;86.76;99863.84;1757883;81;20981;-69
2021/01/09 01:30:11;;;;;;;16.60;12.90;;;;;;;0.84;86.77;99862.15;1757984;81;21383;-69
2021/01/09 01:32:40;;;;;;;15.23;12.53;;;;;;;0.84;86.79;99860.87;1757921;81;21475;-69
2021/01/09 01:35:09;;;;;;;17.95;12.63;;;;;;;0.83;86.72;99861.73;1757925;81;21586;-69
2021/01/09 01:37:38;;;;;;;15.72;12.43;;;;;;;0.82;86.82;99859.20;1757952;81;21044;-69
2021/01/09 01:40:07;;;;;;;16.37;12.98;;;;;;;0.81;86.92;99860.92;1757990;81;21506;-69
2021/01/09 01:42:36;;;;;;;15.15;12.28;;;;;;;0.81;86.90;99860.92;1757979;81;21348;-69
2021/01/09 01:45:08;;;;;;;14.85;12.33;;;;;;;0.81;86.92;99862.64;1757897;81;20977;-69
2021/01/09 01:47:36;;;;;;;16.82;12.58;;;;;;;0.81;87.08;99864.77;1757934;81;21004;-69
2021/01/09 01:50:07;;;;;;;16.17;12.73;;;;;;;0.80;87.11;99860.52;1710913;81;21084;-69
2021/01/09 01:52:35;;;;;;;13.28;11.83;;;;;;;0.80;87.04;99857.14;1758088;81;21424;-70
2021/01/09 01:55:05;;;;;;;15.78;12.28;;;;;;;0.79;87.19;99861.42;1757904;81;21381;-69
2021/01/09 01:57:33;;;;;;;18.20;13.75;;;;;;;0.80;87.26;99862.27;1758020;81;21530;-69
2021/01/09 02:00:05;;;;;;;17.27;13.18;;;;;;;0.81;87.29;99866.48;1757954;81;20965;-69
2021/01/09 02:02:36;;;;;;;14.20;11.90;;;;;;;0.81;87.28;99861.36;1757496;81;20957;-69
2021/01/09 02:05:06;;;;;;;15.55;12.33;;;;;;;0.81;87.27;99869.05;1757903;81;21475;-69
2021/01/09 02:07:39;;;;;;;15.40;12.07;;;;;;;0.81;87.33;99866.48;1757932;81;21636;-69
2021/01/09 02:10:08;;;;;;;16.10;13.15;;;;;;;0.81;87.36;99860.92;1757919;81;21036;-69
2021/01/09 02:12:48;;;;;;;17.35;12.65;;;;;;;0.81;87.36;99863.48;1757860;81;21000;-69
2021/01/09 02:15:17;;;;;;;14.87;12.15;;;;;;;0.79;87.42;99864.42;1757948;81;20930;-69
2021/01/09 02:17:45;;;;;;;14.50;12.47;;;;;;;0.79;87.48;99861.42;1757899;81;21376;-69
2021/01/09 02:20:14;;;;;;;16.85;12.68;;;;;;;0.80;87.57;99859.70;1757974;80;21272;-69
2021/01/09 02:22:43;;;;;;;15.78;13.45;;;;;;;0.80;87.63;99853.30;1757865;81;20965;-69
2021/01/09 02:25:11;;;;;;;15.32;12.55;;;;;;;0.81;87.61;99854.95;1757928;81;20985;-69
2021/01/09 02:27:40;;;;;;;15.80;13.00;;;;;;;0.81;87.69;99854.52;1757889;81;21048;-69
2021/01/09 02:30:12;;;;;;;18.60;12.13;;;;;;;0.82;87.63;99847.23;1757891;80;21127;-69
2021/01/09 02:33:08;;;;;;;15.93;12.20;;;;;;;0.81;87.61;99853.23;1734727;81;22014;-69
2021/01/09 02:35:38;;;;;;;15.45;12.28;;;;;;;0.80;87.69;99847.70;1734438;81;21483;-69
2021/01/09 02:38:07;;;;;;;15.43;12.68;;;;;;;0.80;87.67;99847.70;1757903;81;21279;-69
2021/01/09 02:40:42;;;;;;;15.00;12.37;;;;;;;0.79;87.73;99838.79;1757992;81;21550;-69
2021/01/09 02:43:12;;;;;;;17.50;13.18;;;;;;;0.78;87.77;99839.23;1757940;81;21000;-69
2021/01/09 02:45:41;;;;;;;16.15;12.37;;;;;;;0.78;87.78;99840.95;1757866;81;21318;-69
2021/01/09 02:48:09;;;;;;;15.93;13.18;;;;;;;0.77;87.85;99843.95;1757847;81;20977;-69
2021/01/09 02:50:37;;;;;;;15.53;13.25;;;;;;;0.79;87.96;99846.05;1757948;81;21025;-69
2021/01/09 02:53:07;;;;;;;18.07;14.18;;;;;;;0.78;87.87;99835.38;1757878;81;20980;-70
2021/01/09 02:55:35;;;;;;;14.95;12.68;;;;;;;0.78;87.88;99840.95;1760629;80;21371;-69
2021/01/09 02:58:03;;;;;;;18.60;14.58;;;;;;;0.77;87.86;99839.26;1766313;81;21138;-69
2021/01/09 03:00:32;;;;;;;17.45;13.78;;;;;;;0.76;87.91;99846.54;1766258;81;21558;-69
2021/01/09 03:03:00;;;;;;;17.35;13.78;;;;;;;0.75;87.88;99843.13;1766186;81;21005;-69
2021/01/09 03:05:28;;;;;;;16.37;13.10;;;;;;;0.74;87.86;99841.87;1766193;81;20996;-69
2021/01/09 03:07:56;;;;;;;18.42;13.98;;;;;;;0.74;87.97;99836.75;1766311;81;20964;-70
2021/01/09 03:10:25;;;;;;;17.10;14.63;;;;;;;0.73;88.01;99835.91;1766324;81;22162;-70
2021/01/09 03:12:53;;;;;;;17.60;14.10;;;;;;;0.72;87.99;99829.09;1766189;81;20961;-70
2021/01/09 03:15:22;;;;;;;16.87;14.10;;;;;;;0.72;88.04;99832.94;1766213;81;21068;-70
2021/01/09 03:17:51;;;;;;;18.02;14.98;;;;;;;0.73;88.22;99838.47;1766296;81;21590;-69
2021/01/09 03:20:20;;;;;;;17.67;14.95;;;;;;;0.73;88.17;99839.75;1766258;81;21008;-70
2021/01/09 03:22:48;;;;;;;17.42;14.50;;;;;;;0.72;88.25;99836.78;1766354;81;22089;-70
2021/01/09 03:25:18;;;;;;;16.77;13.93;;;;;;;0.73;88.30;99842.75;1766267;81;21606;-70
2021/01/09 03:27:46;;;;;;;16.85;14.53;;;;;;;0.72;88.33;99843.19;1766278;80;21522;-70
2021/01/09 03:30:16;;;;;;;18.15;14.63;;;;;;;0.72;88.33;99843.19;1766222;81;20936;-70
2021/01/09 03:32:44;;;;;;;17.98;13.68;;;;;;;0.71;88.34;99833.81;1766276;81;21080;-69
2021/01/09 03:35:13;;;;;;;20.50;16.05;;;;;;;0.70;88.42;99834.68;1766333;81;21498;-70
2021/01/09 03:37:41;;;;;;;20.52;14.75;;;;;;;0.72;88.49;99845.75;1766206;81;21023;-70
2021/01/09 03:40:10;;;;;;;18.92;14.85;;;;;;;0.72;88.34;99836.78;1766257;81;21004;-70
2021/01/09 03:42:38;;;;;;;17.90;14.43;;;;;;;0.70;88.42;99842.80;1766216;81;20989;-70
2021/01/09 03:45:08;;;;;;;19.32;14.40;;;;;;;0.71;88.49;99844.06;1766221;81;20960;-70
2021/01/09 03:47:36;;;;;;;20.40;14.75;;;;;;;0.71;88.55;99838.94;1766256;81;21210;-70
2021/01/09 03:50:06;;;;;;;21.77;15.25;;;;;;;0.74;88.52;99840.59;1766280;81;20936;-70
2021/01/09 03:52:34;;;;;;;21.20;15.58;;;;;;;0.74;88.52;99840.16;1766241;81;21012;-69
2021/01/09 03:55:04;;;;;;;19.30;14.98;;;;;;;0.74;88.49;99835.03;1766211;81;20932;-69
2021/01/09 03:57:32;;;;;;;21.57;15.55;;;;;;;0.73;88.52;99831.22;1766202;81;20941;-69
2021/01/09 04:00:00;;;;;;;20.27;15.93;;;;;;;0.75;88.59;99829.47;1766349;80;21201;-69
2021/01/09 04:02:29;;;;;;;21.20;16.52;;;;;;;0.76;88.58;99828.16;1766156;81;21479;-69
2021/01/09 04:04:57;;;;;;;20.17;16.20;;;;;;;0.77;88.52;99825.16;1766173;81;20945;-69
2021/01/09 04:07:25;;;;;;;22.77;16.40;;;;;;;0.77;88.44;99827.29;1766160;80;21494;-70
2021/01/09 04:09:54;;;;;;;21.60;15.80;;;;;;;0.77;88.47;99826.45;1766280;81;20964;-70
2021/01/09 04:12:22;;;;;;;21.80;16.55;;;;;;;0.78;88.43;99830.70;1766240;81;21204;-70
2021/01/09 04:14:50;;;;;;;20.85;16.32;;;;;;;0.77;88.43;99825.16;1766243;81;20960;-70
2021/01/09 04:17:19;;;;;;;22.25;17.32;;;;;;;0.78;88.45;99830.70;1766197;80;20965;-70
2021/01/09 04:19:47;;;;;;;21.87;16.32;;;;;;;0.78;88.44;99825.57;1766161;80;20981;-70
2021/01/09 04:22:16;;;;;;;23.50;17.45;;;;;;;0.78;88.39;99828.98;1766259;80;20933;-69
2021/01/09 04:24:44;;;;;;;28.77;18.50;;;;;;;0.79;88.46;99834.52;1766204;81;21047;-69
2021/01/09 04:27:12;;;;;;;28.45;19.35;;;;;;;0.82;88.48;99832.30;1766302;81;21515;-69
2021/01/09 04:29:41;;;;;;;29.02;20.35;;;;;;;0.81;88.43;99831.45;1766233;81;21649;-69
2021/01/09 04:32:09;;;;;;;28.85;20.05;;;;;;;0.83;88.47;99837.83;1766204;81;21036;-69
2021/01/09 04:34:38;;;;;;;27.25;19.92;;;;;;;0.85;88.34;99839.92;1766266;81;21000;-69
2021/01/09 04:37:08;;;;;;;25.68;18.20;;;;;;;0.87;88.23;99843.30;1766205;81;21209;-70
2021/01/09 04:39:36;;;;;;;22.05;18.32;;;;;;;0.87;88.12;99842.86;1766169;81;20976;-69
2021/01/09 04:42:05;;;;;;;22.17;17.30;;;;;;;0.87;88.02;99846.71;1766222;81;20965;-69
2021/01/09 04:44:37;;;;;;;23.07;17.07;;;;;;;0.88;87.92;99845.84;1766070;81;20969;-70
2021/01/09 04:47:05;;;;;;;24.05;17.95;;;;;;;0.86;87.91;99848.86;1736989;81;21491;-70
2021/01/09 04:49:33;;;;;;;21.82;16.90;;;;;;;0.88;87.83;99851.40;1736667;81;21653;-70
2021/01/09 04:52:03;;;;;;;21.07;17.92;;;;;;;0.88;87.81;99854.81;1766137;81;20953;-69
2021/01/09 04:54:31;;;;;;;23.55;16.90;;;;;;;0.87;87.81;99856.97;1766227;81;21000;-69
2021/01/09 04:57:00;;;;;;;23.10;17.52;;;;;;;0.87;87.73;99866.38;1766058;81;21016;-69
2021/01/09 04:59:29;;;;;;;23.83;17.60;;;;;;;0.85;87.75;99863.84;1766232;81;20988;-69
2021/01/09 05:01:57;;;;;;;23.65;17.15;;;;;;;0.85;87.71;99862.55;1766377;81;22155;-69
2021/01/09 05:04:26;;;;;;;19.95;15.98;;;;;;;0.82;87.63;99869.02;1766341;81;21575;-69
2021/01/09 05:06:54;;;;;;;20.88;16.15;;;;;;;0.81;87.75;99868.61;1766337;81;20937;-69
2021/01/09 05:09:22;;;;;;;21.07;16.80;;;;;;;0.80;87.83;99869.48;1766270;81;21495;-70
2021/01/09 05:11:51;;;;;;;23.27;17.30;;;;;;;0.81;88.23;99870.33;1766398;80;20910;-69
2021/01/09 05:14:19;;;;;;;22.52;16.75;;;;;;;0.83;88.33;99874.55;1712656;81;22020;-70
2021/01/09 05:16:47;;;;;;;24.43;17.90;;;;;;;0.85;87.95;99874.52;1766316;81;21044;-70
2021/01/09 05:19:17;;;;;;;23.65;17.87;;;;;;;0.84;87.83;99877.52;1717745;80;21695;-70
2021/01/09 05:21:46;;;;;;;22.32;17.20;;;;;;;0.84;87.79;99877.52;1793283;79;21028;-70
2021/01/09 05:24:14;;;;;;;25.25;17.62;;;;;;;0.85;87.72;99881.78;1793355;79;21004;-69
2021/01/09 05:26:43;;;;;;;23.40;17.07;;;;;;;0.87;88.05;99883.03;1793344;80;21210;-69
2021/01/09 05:29:11;;;;;;;26.12;17.75;;;;;;;0.90;88.64;99884.26;1765078;80;21004;-69
2021/01/09 05:31:39;;;;;;;24.70;18.73;;;;;;;0.95;88.75;99880.73;1740319;80;21585;-69
2021/01/09 05:34:08;;;;;;;24.87;18.27;;;;;;;1.01;88.82;99886.19;1793358;80;21569;-69
2021/01/09 05:36:36;;;;;;;24.40;18.07;;;;;;;1.07;88.90;99887.34;1793335;80;21031;-70
2021/01/09 05:39:05;;;;;;;26.40;18.25;;;;;;;1.15;88.55;99887.20;1793312;80;21065;-70
2021/01/09 05:41:33;;;;;;;25.30;18.65;;;;;;;1.18;88.35;99886.70;1793275;79;20968;-70
2021/01/09 05:44:07;;;;;;;29.57;18.98;;;;;;;1.21;88.34;99884.48;1793258;80;20965;-69
2021/01/09 05:46:37;;;;;;;24.75;18.77;;;;;;;1.25;88.24;99888.67;1793417;79;21384;-70
2021/01/09 05:49:07;;;;;;;25.57;19.20;;;;;;;1.27;87.74;99892.91;1793395;80;21392;-70
2021/01/09 05:51:38;;;;;;;24.57;17.75;;;;;;;1.28;87.33;99891.18;1793347;80;21378;-70
2021/01/09 05:54:07;;;;;;;26.85;19.05;;;;;;;1.26;87.10;99895.06;1793358;80;21522;-70
2021/01/09 05:56:42;;;;;;;27.48;19.67;;;;;;;1.26;86.98;99897.62;1793036;80;21063;-70
2021/01/09 05:59:11;;;;;;;25.20;18.70;;;;;;;1.25;86.98;99897.66;1809387;77;21056;-71
2021/01/09 06:01:39;;;;;;;23.57;18.57;;;;;;;1.24;86.80;99900.66;1854608;76;21180;-71
2021/01/09 06:04:18;;;;;;;27.27;19.00;;;;;;;1.24;86.79;99905.78;1755375;79;21294;-71
2021/01/09 06:07:20;;;;;;;26.27;19.67;;;;;;;1.24;86.99;99906.22;1806787;76;21590;-71
2021/01/09 06:09:59;;;;;;;27.25;21.07;;;;;;;1.23;86.95;99906.66;1864554;75;21091;-71
2021/01/09 06:12:29;;;;;;;29.80;20.57;;;;;;;1.22;86.92;99913.10;1865242;75;21241;-70
2021/01/09 06:14:57;;;;;;;28.10;19.95;;;;;;;1.21;87.13;99918.67;1865451;75;21073;-71
2021/01/09 06:17:26;;;;;;;27.42;19.82;;;;;;;1.22;87.05;99915.67;1835855;77;21178;-70
2021/01/09 06:19:54;;;;;;;28.55;20.92;;;;;;;1.22;87.11;99917.80;1831231;76;20996;-71
2021/01/09 06:22:23;;;;;;;29.60;21.85;;;;;;;1.23;86.96;99924.61;1832351;78;21614;-71
2021/01/09 06:24:51;;;;;;;29.57;21.45;;;;;;;1.21;86.99;99927.64;1832311;78;21060;-72
2021/01/09 06:27:26;;;;;;;29.02;20.20;;;;;;;1.22;87.02;99928.05;1832021;78;21017;-72
2021/01/09 06:29:55;;;;;;;30.25;20.57;;;;;;;1.23;87.10;99930.18;1801933;78;22082;-69
2021/01/09 06:32:25;;;;;;;27.90;20.60;;;;;;;1.24;87.06;99927.59;1850840;77;21498;-70
2021/01/09 06:34:53;;;;;;;30.05;21.48;;;;;;;1.24;87.03;99922.45;1865332;77;21653;-70
2021/01/09 06:37:23;;;;;;;26.87;19.82;;;;;;;1.25;87.05;99925.87;1864960;76;21070;-70
2021/01/09 06:39:52;;;;;;;27.95;19.70;;;;;;;1.26;87.00;99928.41;1865426;77;20921;-70
2021/01/09 06:42:20;;;;;;;27.70;19.82;;;;;;;1.28;86.94;99928.38;1836921;77;21184;-70
2021/01/09 06:44:52;;;;;;;26.87;19.82;;;;;;;1.28;86.96;99931.78;1865277;75;21067;-70
2021/01/09 06:47:25;;;;;;;30.40;21.40;;;;;;;1.29;86.86;99933.91;1864983;76;21040;-70
2021/01/09 06:49:55;;;;;;;29.60;21.50;;;;;;;1.29;86.86;99933.47;1865422;77;21047;-71
2021/01/09 06:52:31;;;;;;;31.97;21.70;;;;;;;1.30;87.02;99940.30;1865299;77;21036;-71
2021/01/09 06:54:59;;;;;;;30.97;21.12;;;;;;;1.32;86.97;99941.11;1861029;77;21367;-70
2021/01/09 06:57:29;;;;;;;29.85;20.97;;;;;;;1.33;86.85;99941.52;1846899;76;21012;-70
2021/01/09 06:59:58;;;;;;;29.50;21.37;;;;;;;1.34;86.92;99939.36;1710655;80;21081;-70
2021/01/09 07:02:31;;;;;;;31.55;21.60;;;;;;;1.38;86.95;99936.30;1791631;80;21029;-71
2021/01/09 07:05:06;;;;;;;28.35;21.75;;;;;;;1.41;86.84;99936.23;1764117;81;20957;-71
2021/01/09 07:07:57;;;;;;;31.30;21.65;;;;;;;1.42;86.74;99936.64;1771949;80;21226;-70
2021/01/09 07:10:31;;;;;;;30.05;21.23;;;;;;;1.43;86.60;99938.77;1825719;78;21056;-71
2021/01/09 07:13:06;;;;;;;30.77;21.87;;;;;;;1.43;86.62;99940.05;1825644;78;21031;-70
2021/01/09 07:15:39;;;;;;;31.65;22.00;;;;;;;1.44;86.60;99942.59;1825527;78;21104;-70
2021/01/09 07:18:11;;;;;;;30.15;21.20;;;;;;;1.47;86.61;99945.53;1825635;78;21127;-71
2021/01/09 07:20:44;;;;;;;31.95;21.90;;;;;;;1.48;86.54;99948.06;1765851;78;21048;-71
2021/01/09 07:23:16;;;;;;;30.27;21.15;;;;;;;1.52;86.60;99952.70;1825676;78;21423;-71
2021/01/09 07:25:47;;;;;;;28.57;21.42;;;;;;;1.56;86.57;99946.63;1825339;78;20957;-70
2021/01/09 07:28:26;;;;;;;30.70;22.35;;;;;;;1.58;86.34;99945.72;1825507;78;21052;-71
2021/01/09 07:31:08;;;;;;;31.50;22.48;;;;;;;1.61;86.26;99953.33;1825793;78;20981;-71
2021/01/09 07:33:44;;;;;;;31.30;22.25;;;;;;;1.65;86.18;99952.83;1823537;78;22129;-71
2021/01/09 07:36:18;;;;;;;32.50;23.50;;;;;;;1.65;86.03;99942.13;1825230;78;21005;-71
2021/01/09 07:39:01;;;;;;;33.40;23.25;;;;;;;1.67;85.92;99945.94;1821643;78;20946;-71
2021/01/09 07:41:37;;;;;;;33.20;25.10;;;;;;;1.68;86.01;99942.50;1791487;78;21005;-70
2021/01/09 07:44:21;;;;;;;33.80;23.47;;;;;;;1.70;85.81;99949.73;1798480;78;21012;-71
2021/01/09 07:47:05;;;;;;;30.72;21.85;;;;;;;1.72;85.78;99950.98;1825283;78;22114;-70
2021/01/09 07:49:37;;;;;;;32.75;23.47;;;;;;;1.73;85.70;99952.67;1825448;78;21017;-70
2021/01/09 07:52:11;;;;;;;32.83;23.00;;;;;;;1.73;85.65;99953.52;1799108;78;21032;-70
2021/01/09 07:54:44;;;;;;;28.25;22.05;;;;;;;1.73;85.58;99955.23;1825729;78;21056;-70
2021/01/09 07:57:29;;;;;;;32.10;21.65;;;;;;;1.71;85.70;99953.98;1801353;78;45447;-70
2021/01/09 08:00:04;;;;;;;29.87;22.55;;;;;;;1.74;85.64;99949.23;1830181;77;21406;-69
2021/01/09 08:02:37;;;;;;;35.83;23.98;;;;;;;1.74;85.64;99950.07;1800701;76;21310;-69
2021/01/09 08:05:22;;;;;;;30.85;21.37;;;;;;;1.75;85.64;99953.48;1852862;76;21123;-70
2021/01/09 08:07:56;;;;;;;29.85;21.62;;;;;;;1.77;85.60;99952.57;1854965;77;20890;-70
2021/01/09 08:10:35;;;;;;;35.20;26.37;;;;;;;1.78;85.53;99952.98;1855934;76;21193;-70
2021/01/09 08:13:09;;;;;;;37.05;26.05;;;;;;;1.76;85.50;99952.16;1856405;77;21191;-70
2021/01/09 08:15:41;;;;;;;34.88;25.88;;;;;;;1.77;85.58;99950.44;1856002;77;21037;-70
2021/01/09 08:18:17;;;;;;;39.60;27.30;;;;;;;1.76;85.59;99950.88;1856144;76;20997;-71
2021/01/09 08:20:56;;;;;;;37.33;26.40;;;;;;;1.77;85.63;99953.02;1856351;77;20914;-71
2021/01/09 08:23:36;;;;;;;34.45;25.00;;;;;;;1.75;85.65;99949.63;1856292;77;20988;-70
2021/01/09 08:26:13;;;;;;;38.20;26.27;;;;;;;1.74;85.64;99947.50;1855861;76;21245;-70
2021/01/09 08:28:49;;;;;;;36.45;26.05;;;;;;;1.72;85.64;99944.56;1855884;76;21036;-70
2021/01/09 08:31:28;;;;;;;43.90;30.50;;;;;;;1.73;85.75;99951.39;1847249;76;21048;-70
2021/01/09 08:34:05;;;;;;;38.45;27.30;;;;;;;1.71;85.92;99944.16;1826114;77;21012;-71
2021/01/09 08:36:43;;;;;;;34.05;24.77;;;;;;;1.72;86.12;99942.84;1826595;77;21036;-70
2021/01/09 08:39:43;;;;;;;35.68;25.10;;;;;;;1.74;86.46;99936.39;1856204;77;21049;-71
2021/01/09 08:42:21;;;;;;;32.95;23.62;;;;;;;1.79;86.65;99946.13;1856406;77;21597;-71
2021/01/09 08:44:59;;;;;;;37.15;25.68;;;;;;;1.80;86.66;99938.39;1856505;76;20929;-71
2021/01/09 08:47:31;;;;;;;36.55;26.73;;;;;;;1.83;86.53;99937.04;1855975;76;21602;-71
2021/01/09 08:50:17;;;;;;;38.55;26.65;;;;;;;1.86;86.37;99936.12;1856216;77;21028;-71
2021/01/09 08:52:58;;;;;;;36.85;26.17;;;;;;;1.85;86.37;99934.00;1804316;77;20985;-70
2021/01/09 08:55:34;;;;;;;38.90;26.45;;;;;;;1.85;86.52;99928.02;1856197;76;21147;-71
2021/01/09 08:58:19;;;;;;;35.98;23.98;;;;;;;1.85;86.59;99923.73;1856208;76;21013;-73
2021/01/09 09:01:07;;;;;;;36.95;24.77;;;;;;;1.85;86.57;99923.73;1826997;77;20913;-71
2021/01/09 09:03:47;;;;;;;36.35;25.48;;;;;;;1.85;86.55;99924.17;1855110;76;21017;-72
2021/01/09 09:06:27;;;;;;;37.23;25.50;;;;;;;1.82;86.60;99917.37;1848355;76;21656;-72
2021/01/09 09:09:19;;;;;;;37.55;26.45;;;;;;;1.82;86.76;99920.39;1823703;78;20993;-71
2021/01/09 09:11:58;;;;;;;40.48;27.52;;;;;;;1.82;86.97;99913.53;1805128;78;21037;-71
2021/01/09 09:14:36;;;;;;;39.27;25.55;;;;;;;1.83;87.11;99911.37;1824030;77;21007;-71
2021/01/09 09:17:11;;;;;;;34.23;24.65;;;;;;;1.86;87.10;99910.45;1814149;78;21637;-72
2021/01/09 09:19:46;;;;;;;36.77;26.20;;;;;;;1.89;87.18;99907.38;1824072;77;21194;-71
2021/01/09 09:22:32;;;;;;;34.92;24.50;;;;;;;1.92;87.23;99906.03;1822052;78;20986;-72
2021/01/09 09:25:09;;;;;;;35.23;24.87;;;;;;;1.94;87.04;99902.98;1804616;78;20933;-71
2021/01/09 09:27:49;;;;;;;37.25;26.80;;;;;;;1.96;87.08;99901.67;1816094;77;21626;-71
2021/01/09 09:30:28;;;;;;;38.60;25.82;;;;;;;2.03;87.08;99903.63;1804200;78;20990;-70
2021/01/09 09:33:14;;;;;;;42.65;29.05;;;;;;;2.05;86.89;99896.73;1824107;77;21408;-70
2021/01/09 09:35:47;;;;;;;46.90;29.77;;;;;;;2.09;87.14;99893.22;1823695;77;21025;-70
2021/01/09 09:38:23;;;;;;;49.33;30.82;;;;;;;2.14;86.94;99894.80;1803501;78;21005;-72
2021/01/09 09:41:05;;;;;;;41.58;27.55;;;;;;;2.18;86.82;99890.43;1823858;77;21001;-70
2021/01/09 09:43:41;;;;;;;39.03;27.22;;;;;;;2.21;86.69;99886.06;1804171;78;20997;-70
2021/01/09 09:46:39;;;;;;;39.73;26.05;;;;;;;2.23;86.64;99887.31;1806793;77;20993;-70
2021/01/09 09:49:12;;;;;;;37.30;25.32;;;;;;;2.26;86.45;99887.24;1804675;78;21129;-69
2021/01/09 09:51:44;;;;;;;37.13;25.12;;;;;;;2.29;86.48;99884.16;1823386;76;21482;-72
2021/01/09 09:54:31;;;;;;;35.45;24.23;;;;;;;2.35;86.31;99880.59;1799340;77;21014;-70
2021/01/09 09:57:05;;;;;;;33.50;22.65;;;;;;;2.38;86.33;99877.95;1855723;76;21669;-71
2021/01/09 10:00:11;;;;;;;33.20;24.02;;;;;;;2.40;86.24;99872.30;1851694;76;20950;-70
2021/01/09 10:02:55;;;;;;;36.30;25.37;;;;;;;2.46;86.27;99881.58;1841890;77;21015;-70
2021/01/09 10:05:37;;;;;;;37.63;26.33;;;;;;;2.51;86.22;99877.17;1812219;77;20978;-73
2021/01/09 10:08:18;;;;;;;34.98;24.82;;;;;;;2.55;85.94;99882.64;1841915;76;21011;-70
2021/01/09 10:10:58;;;;;;;38.05;26.30;;;;;;;2.56;85.75;99874.89;1765104;79;21026;-70
2021/01/09 10:13:35;;;;;;;34.27;24.90;;;;;;;2.56;85.46;99872.76;1797342;79;21136;-71
2021/01/09 10:16:11;;;;;;;34.60;24.57;;;;;;;2.56;85.57;99879.19;1766388;79;21030;-72
2021/01/09 10:18:47;;;;;;;35.28;25.17;;;;;;;2.58;85.45;99882.13;1765105;79;20986;-72
2021/01/09 10:21:29;;;;;;;32.20;23.80;;;;;;;2.59;85.33;99878.66;1797025;78;21071;-71
2021/01/09 10:24:29;;;;;;;36.65;24.75;;;;;;;2.60;85.36;99876.50;1768286;79;21168;-71
2021/01/09 10:27:07;;;;;;;34.25;23.80;;;;;;;2.60;85.14;99880.36;1796925;78;22029;-71
2021/01/09 10:29:51;;;;;;;30.32;23.30;;;;;;;2.60;84.93;99875.66;1768995;79;20940;-71
2021/01/09 10:32:31;;;;;;;31.20;22.52;;;;;;;2.56;84.88;99872.32;1793284;77;20959;-72
2021/01/09 10:35:08;;;;;;;31.68;23.15;;;;;;;2.53;85.01;99868.55;1830401;75;20994;-71
2021/01/09 10:37:40;;;;;;;34.27;23.10;;;;;;;2.50;84.85;99865.20;1829620;78;21059;-71
2021/01/09 10:40:17;;;;;;;34.60;24.32;;;;;;;2.48;84.86;99871.67;1799378;78;22298;-73
2021/01/09 10:43:13;;;;;;;34.00;22.37;;;;;;;2.45;84.99;99867.89;1826462;78;21122;-71
2021/01/09 10:45:44;;;;;;;29.92;22.40;;;;;;;2.43;85.08;99868.37;1797762;78;21040;-71
2021/01/09 10:48:19;;;;;;;33.50;22.67;;;;;;;2.40;85.11;99865.06;1829013;78;20941;-70
2021/01/09 10:51:01;;;;;;;33.92;23.07;;;;;;;2.36;84.99;99866.86;1774810;78;21609;-70
2021/01/09 10:53:41;;;;;;;33.25;22.98;;;;;;;2.32;85.06;99860.95;1774580;78;21006;-70
2021/01/09 10:56:28;;;;;;;34.20;24.23;;;;;;;2.31;85.38;99863.56;1771865;79;21524;-71
2021/01/09 10:59:11;;;;;;;30.65;23.07;;;;;;;2.31;85.46;99861.84;1794106;78;21487;-71
2021/01/09 11:02:04;;;;;;;;;;;;;;;2.33;85.44;99860.08;1772975;80;21059;-71
2021/01/09 11:05:03;;;;;;;31.60;22.42;;;;;;;2.35;85.47;99867.75;1791947;79;20146;-71
2021/01/09 11:07:41;;;;;;;34.55;23.70;;;;;;;2.35;85.56;99863.89;1788602;77;21348;-72
2021/01/09 11:10:19;;;;;;;30.45;22.73;;;;;;;2.36;85.58;99856.59;1817619;79;20973;-73
2021/01/09 11:13:13;;;;;;;33.53;23.52;;;;;;;2.40;85.44;99860.73;1772922;79;21009;-71
2021/01/09 11:15:50;;;;;;;31.60;22.62;;;;;;;2.40;85.30;99863.30;1817490;79;20985;-74
2021/01/09 11:18:24;;;;;;;32.83;23.42;;;;;;;2.38;85.18;99861.25;1817847;79;20997;-72
2021/01/09 11:20:58;;;;;;;31.17;23.38;;;;;;;2.36;84.95;99864.73;1817737;79;20989;-72
2021/01/09 11:23:44;;;;;;;29.70;21.90;;;;;;;2.33;84.92;99861.80;1817808;79;21013;-71
2021/01/09 11:26:28;;;;;;;33.92;23.35;;;;;;;2.31;84.91;99854.58;1767798;79;21073;-71
2021/01/09 11:29:23;;;;;;;36.80;22.90;;;;;;;2.29;84.91;99861.03;1816526;79;21008;-70
2021/01/09 11:32:06;;;;;;;34.08;22.80;;;;;;;2.26;85.04;99861.55;1796969;79;20989;-71
2021/01/09 11:34:57;;;;;;;30.10;20.77;;;;;;;2.27;85.24;99865.37;1817551;78;21044;-73
2021/01/09 11:37:31;;;;;;;26.80;20.48;;;;;;;2.26;85.13;99865.41;1817457;79;21120;-72
2021/01/09 11:40:07;;;;;;;30.00;20.20;;;;;;;2.26;84.79;99866.25;1817890;79;20953;-73
2021/01/09 11:42:52;;;;;;;27.27;20.55;;;;;;;2.23;84.48;99866.32;1797024;79;21049;-72
2021/01/09 11:45:31;;;;;;;26.57;20.75;;;;;;;2.23;84.45;99871.91;1803125;77;20956;-73
2021/01/09 11:48:11;;;;;;;28.27;20.60;;;;;;;2.21;84.47;99865.95;1791415;79;21196;-71
2021/01/09 11:50:52;;;;;;;31.65;21.82;;;;;;;2.21;84.47;99867.23;1771007;80;21003;-70
2021/01/09 11:53:45;;;;;;;;;;;;;;;2.22;84.35;99874.06;1795247;80;20996;-71
2021/01/09 11:56:24;;;;;;;29.80;20.43;;;;;;;2.22;84.15;99875.34;1772179;80;20809;-70